Ship Status Report: callsign BAREU11

sailwx.info

Track history (hours):
 
Tides and Currents Weather Stations Pressure Air Temp Water Temp Dewpoint Dewpoint Depression Visibility Wind Speed Wind Dir Waves Ship Positions

Callsign BAREU11 (name unknown)

Last reported at 2016-Feb-14 09:00 UTC. Time now 2016-Feb-14 10:06 UTC.
Position N 38°12' W 023°06'.

Barometer 1034.5 mb

Date/timePositionNaut miles runAvg speedWind from/ knotsBaromVisibWave heightAir tempDewpointWater temp
2016-Feb-14 09:00N 38°12' W 023°06'3818.8 1034.5
2016-Feb-14 07:00N 38°30' W 022°24'1515.3 1032.3
2016-Feb-14 06:00N 38°36' W 022°06'2019.7 1030.9
2016-Feb-14 05:00N 38°42' W 021°42'1515.3 1030.0
2016-Feb-14 04:00N 38°48' W 021°24'3718.6 1029.7
2016-Feb-14 02:00N 39°06' W 020°42'2019.6 1028.1
2016-Feb-14 01:00N 39°12' W 020°18'1515.2 1027.5
2016-Feb-14 00:00N 39°18' W 020°00'1515.2 1026.2
2016-Feb-13 23:00N 39°24' W 019°42'1919.5 1024.8
2016-Feb-13 22:00N 39°30' W 019°18'1515.1 1023.5
2016-Feb-13 21:00N 39°36' W 019°00'2222.0 1022.1
2016-Feb-13 20:00N 39°48' W 018°36'1515.1 1020.7
2016-Feb-13 19:00N 39°54' W 018°18'1515.0 1019.4
2016-Feb-13 18:00N 40°00' W 018°00'1919.3 1018.4
2016-Feb-13 17:00N 40°06' W 017°36'1515.0 1017.3
2016-Feb-13 16:00N 40°12' W 017°18'1919.3 1016.3
2016-Feb-13 15:00N 40°18' W 016°54'1818.2 1015.5
2016-Feb-13 14:00N 40°30' W 016°36'1514.9 1015.0
2016-Feb-13 13:00N 40°36' W 016°18'1919.2 1014.7
2016-Feb-13 12:00N 40°42' W 015°54'1514.9 1014.2
2016-Feb-13 11:00N 40°48' W 015°36'1919.1 1013.1
2016-Feb-13 10:00N 40°54' W 015°12'1514.9 1013.3
2016-Feb-13 09:00N 41°00' W 014°54'1818.1 1012.3
2016-Feb-13 08:00N 41°12' W 014°36'1919.0 1012.2
2016-Feb-13 07:00N 41°18' W 014°12'1514.8 1011.7
2016-Feb-13 06:00N 41°24' W 013°54'1514.8 1011.8
2016-Feb-13 05:00N 41°30' W 013°36'3416.8 1011.6
2016-Feb-13 03:00N 41°42' W 012°54'1514.7 1011.5
2016-Feb-13 02:00N 41°48' W 012°36'1514.7 1011.8
2016-Feb-13 01:00N 41°54' W 012°18'1514.7 1011.5
2016-Feb-13 00:00N 42°00' W 012°00'2222.4 1010.3
2016-Feb-12 23:00N 42°18' W 011°42'2020.1 1009.6
2016-Feb-12 22:00N 42°36' W 011°30'1514.9 1008.3
2016-Feb-12 21:00N 42°48' W 011°18'2020.0 1007.5
2016-Feb-12 20:00N 43°06' W 011°06'1514.8 1006.7
2016-Feb-12 19:00N 43°18' W 010°54'2020.0 1006.0
2016-Feb-12 18:00N 43°36' W 010°42'1817.7 1004.9
2016-Feb-12 17:00N 43°48' W 010°24'2020.0 1004.3
2016-Feb-12 16:00N 44°06' W 010°12'1514.8 1003.7
2016-Feb-12 15:00N 44°18' W 010°00'2019.9 1003.3
2016-Feb-12 14:00N 44°36' W 009°48'1817.5 1002.8
2016-Feb-12 13:00N 44°48' W 009°30'2019.9 1002.6
2016-Feb-12 12:00N 45°06' W 009°18'2019.9 1002.8
2016-Feb-12 11:00N 45°24' W 009°06'1717.4 1002.4
2016-Feb-12 10:00N 45°36' W 008°48'2019.9 1001.1
2016-Feb-12 09:00N 45°54' W 008°36'1514.6 1000.2
2016-Feb-12 08:00N 46°06' W 008°24'2221.9 998.7
2016-Feb-12 07:00N 46°24' W 008°06'2019.8 997.3
2016-Feb-12 06:00N 46°42' W 007°54'3618.2 996.5
2016-Feb-12 04:00N 47°12' W 007°24'1414.5 994.3
2016-Feb-12 03:00N 47°24' W 007°12'2221.7 994.5
2016-Feb-12 02:00N 47°42' W 006°54'1414.5 994.2
2016-Feb-12 01:00N 47°54' W 006°42'2019.7 992.9
2016-Feb-12 00:00N 48°12' W 006°30'2221.6 993.8
2016-Feb-11 23:00N 48°30' W 006°12'6315.8 995.2
2016-Feb-11 19:00N 49°12' W 005°00'1716.8 1001.7
2016-Feb-11 18:00N 49°18' W 004°36'2019.7 1002.8
2016-Feb-11 17:00N 49°30' W 004°12'3618.0 1003.2
2016-Feb-11 15:00N 49°48' W 003°24'4321.3 1003.9
2016-Feb-11 13:00N 50°06' W 002°24'1515.4 1004.5
2016-Feb-11 12:00N 50°06' W 002°00'1716.5 1004.9
2016-Feb-11 11:00N 50°12' W 001°36'1616.5 1004.7
2016-Feb-11 10:00N 50°18' W 001°12'1616.4 1004.5
2016-Feb-11 09:00N 50°24' W 000°48'1515.3 1005.1
2016-Feb-11 08:00N 50°24' W 000°24'2020.0 1005.2
2016-Feb-11 07:00N 50°30' E 000°06'2020.0 1005.0
2016-Feb-11 06:00N 50°36' E 000°36'1919.4 1005.0
2016-Feb-11 05:00N 50°48' E 001°00'1919.3 1005.1
2016-Feb-11 04:00N 51°00' E 001°24'1616.5 1004.7
2016-Feb-11 03:00N 51°12' E 001°42'1616.5 1004.3
2016-Feb-11 02:00N 51°24' E 002°00'1515.0 1003.4
2016-Feb-11 01:00N 51°24' E 002°24'1515.0 1002.9
2016-Feb-11 00:00N 51°24' E 002°48'3015.0 1002.9
2016-Feb-10 22:00N 51°24' E 003°36'7 7.5 1001.9
2016-Feb-10 21:00N 51°24' E 003°48'1111.2 1001.8
2016-Feb-10 20:00N 51°24' E 004°06'10 0.7 1000.7
2016-Feb-10 07:00N 51°18' E 004°18'0 0.0 991.2
2016-Feb-10 03:00N 51°18' E 004°18'7 7.1 989.4
2016-Feb-10 02:00N 51°24' E 004°12'1616.1 989.6
2016-Feb-10 01:00N 51°18' E 003°48'1312.7 989.6
2016-Feb-10 00:00N 51°24' E 003°30'1515.0 989.4
2016-Feb-09 23:00N 51°24' E 003°06'1515.0 989.0
2016-Feb-09 22:00N 51°24' E 002°42'7 7.5 988.2
2016-Feb-09 21:00N 51°24' E 002°30'1312.7 988.8
2016-Feb-09 20:00N 51°18' E 002°12'2311.7 988.5
2016-Feb-09 18:00N 51°36' E 001°48'1312.6 986.7
2016-Feb-09 17:00N 51°48' E 001°42'48 2.5 985.5
2016-Feb-08 22:00N 51°30' E 000°30'7 0.7 994.0
2016-Feb-08 12:00N 51°30' E 000°42'1111.2 982.5
2016-Feb-08 11:00N 51°30' E 001°00'1312.7 983.7
2016-Feb-08 10:00N 51°36' E 001°18'10 9.6 984.0
2016-Feb-08 09:00N 51°42' E 001°30'1414.1 983.4
2016-Feb-08 08:00N 51°54' E 001°42'7 7.4 982.9
2016-Feb-08 07:00N 51°54' E 001°54'1111.1 982.5
2016-Feb-08 06:00N 51°54' E 002°12'7 7.0 983.4
2016-Feb-08 05:00N 52°00' E 002°18'2814.2 983.0
2016-Feb-08 03:00N 52°18' E 002°54'1312.5 983.2
2016-Feb-08 02:00N 52°24' E 003°12'1414.0 983.4
2016-Feb-08 01:00N 52°36' E 003°24'1616.2 982.0
2016-Feb-08 00:00N 52°48' E 003°42'9 9.4 984.5
2016-Feb-07 23:00N 52°54' E 003°54'1616.2 986.3
2016-Feb-07 22:00N 53°06' E 004°12'1616.1 989.3
2016-Feb-07 21:00N 53°18' E 004°30'1414.0 990.7
2016-Feb-07 20:00N 53°30' E 004°42'1212.3 991.2
2016-Feb-07 19:00N 53°36' E 005°00'1515.4 991.9
2016-Feb-07 18:00N 53°42' E 005°24'1414.2 992.7
2016-Feb-07 17:00N 53°42' E 005°48'1515.4 992.9
2016-Feb-07 16:00N 53°48' E 006°12'1212.2 993.2
2016-Feb-07 15:00N 53°54' E 006°30'1414.1 993.8
2016-Feb-07 14:00N 53°54' E 006°54'1515.3 993.9
2016-Feb-07 13:00N 54°00' E 007°18'1414.1 994.1
2016-Feb-07 12:00N 54°00' E 007°42'1414.1 994.2
2016-Feb-07 11:00N 54°00' E 008°06'1414.1 994.5
2016-Feb-07 10:00N 54°00' E 008°30'1918.5 994.9
2016-Feb-07 09:00N 53°48' E 008°54'19 9.4 995.5
2016-Feb-07 07:00N 53°42' E 009°24'1212.2 997.6
2016-Feb-07 06:00N 53°36' E 009°42'9 1.2 997.9
2016-Feb-06 22:00N 53°30' E 009°54'0 0.0 1004.1
2016-Feb-05 16:00N 53°30' E 009°54'0 0.0 1017.9
2016-Feb-05 13:00N 53°30' E 009°54'1212.3 1018.9
2016-Feb-05 12:00N 53°36' E 009°36'9 9.3 1018.9
2016-Feb-05 11:00N 53°42' E 009°24'1413.9 1019.3
2016-Feb-05 10:00N 53°54' E 009°12'1212.2 1020.2
2016-Feb-05 09:00N 53°48' E 008°54'1616.0 1020.3
2016-Feb-05 08:00N 54°00' E 008°36'1414.1 1020.2
2016-Feb-05 07:00N 54°00' E 008°12'1918.6 1020.4
2016-Feb-05 06:00N 53°54' E 007°42'2121.2 1020.4
2016-Feb-05 05:00N 53°54' E 007°06'4120.4 1021.1
2016-Feb-05 03:00N 53°42' E 006°00'1918.8 1021.9
2016-Feb-05 02:00N 53°36' E 005°30'1918.8 1022.7
2016-Feb-05 01:00N 53°30' E 005°00'2323.0 1023.0
2016-Feb-05 00:00N 53°12' E 004°36'3718.5 1023.9
2016-Feb-04 22:00N 52°42' E 004°00'1818.4 1024.7
2016-Feb-04 21:00N 52°24' E 003°54'1818.0 1024.7
2016-Feb-04 20:00N 52°06' E 003°54'   1024.7
Track history (hours):
 
Tides and Currents Weather Stations Pressure Air Temp Water Temp Dewpoint Dewpoint Depression Visibility Wind Speed Wind Dir Waves Ship Positions

Callsign BAREU11 (name unknown)

Last reported at 2016-Feb-14 09:00 UTC. Time now 2016-Feb-14 10:06 UTC.
Position N 38°12' W 023°06'.

Barometer 1034.5 mb

Date/timePositionNaut miles runAvg speedWind from/ knotsBaromVisibWave heightAir tempDewpointWater temp
2016-Feb-14 09:00N 38°12' W 023°06'3818.8 1034.5
2016-Feb-14 07:00N 38°30' W 022°24'1515.3 1032.3
2016-Feb-14 06:00N 38°36' W 022°06'2019.7 1030.9
2016-Feb-14 05:00N 38°42' W 021°42'1515.3 1030.0
2016-Feb-14 04:00N 38°48' W 021°24'3718.6 1029.7
2016-Feb-14 02:00N 39°06' W 020°42'2019.6 1028.1
2016-Feb-14 01:00N 39°12' W 020°18'1515.2 1027.5
2016-Feb-14 00:00N 39°18' W 020°00'1515.2 1026.2
2016-Feb-13 23:00N 39°24' W 019°42'1919.5 1024.8
2016-Feb-13 22:00N 39°30' W 019°18'1515.1 1023.5
2016-Feb-13 21:00N 39°36' W 019°00'2222.0 1022.1
2016-Feb-13 20:00N 39°48' W 018°36'1515.1 1020.7
2016-Feb-13 19:00N 39°54' W 018°18'1515.0 1019.4
2016-Feb-13 18:00N 40°00' W 018°00'1919.3 1018.4
2016-Feb-13 17:00N 40°06' W 017°36'1515.0 1017.3
2016-Feb-13 16:00N 40°12' W 017°18'1919.3 1016.3
2016-Feb-13 15:00N 40°18' W 016°54'1818.2 1015.5
2016-Feb-13 14:00N 40°30' W 016°36'1514.9 1015.0
2016-Feb-13 13:00N 40°36' W 016°18'1919.2 1014.7
2016-Feb-13 12:00N 40°42' W 015°54'1514.9 1014.2
2016-Feb-13 11:00N 40°48' W 015°36'1919.1 1013.1
2016-Feb-13 10:00N 40°54' W 015°12'1514.9 1013.3
2016-Feb-13 09:00N 41°00' W 014°54'1818.1 1012.3
2016-Feb-13 08:00N 41°12' W 014°36'1919.0 1012.2
2016-Feb-13 07:00N 41°18' W 014°12'1514.8 1011.7
2016-Feb-13 06:00N 41°24' W 013°54'1514.8 1011.8
2016-Feb-13 05:00N 41°30' W 013°36'3416.8 1011.6
2016-Feb-13 03:00N 41°42' W 012°54'1514.7 1011.5
2016-Feb-13 02:00N 41°48' W 012°36'1514.7 1011.8
2016-Feb-13 01:00N 41°54' W 012°18'1514.7 1011.5
2016-Feb-13 00:00N 42°00' W 012°00'2222.4 1010.3
2016-Feb-12 23:00N 42°18' W 011°42'2020.1 1009.6
2016-Feb-12 22:00N 42°36' W 011°30'1514.9 1008.3
2016-Feb-12 21:00N 42°48' W 011°18'2020.0 1007.5
2016-Feb-12 20:00N 43°06' W 011°06'1514.8 1006.7
2016-Feb-12 19:00N 43°18' W 010°54'2020.0 1006.0
2016-Feb-12 18:00N 43°36' W 010°42'1817.7 1004.9
2016-Feb-12 17:00N 43°48' W 010°24'2020.0 1004.3
2016-Feb-12 16:00N 44°06' W 010°12'1514.8 1003.7
2016-Feb-12 15:00N 44°18' W 010°00'2019.9 1003.3
2016-Feb-12 14:00N 44°36' W 009°48'1817.5 1002.8
2016-Feb-12 13:00N 44°48' W 009°30'2019.9 1002.6
2016-Feb-12 12:00N 45°06' W 009°18'2019.9 1002.8
2016-Feb-12 11:00N 45°24' W 009°06'1717.4 1002.4
2016-Feb-12 10:00N 45°36' W 008°48'2019.9 1001.1
2016-Feb-12 09:00N 45°54' W 008°36'1514.6 1000.2
2016-Feb-12 08:00N 46°06' W 008°24'2221.9 998.7
2016-Feb-12 07:00N 46°24' W 008°06'2019.8 997.3
2016-Feb-12 06:00N 46°42' W 007°54'3618.2 996.5
2016-Feb-12 04:00N 47°12' W 007°24'1414.5 994.3
2016-Feb-12 03:00N 47°24' W 007°12'2221.7 994.5
2016-Feb-12 02:00N 47°42' W 006°54'1414.5 994.2
2016-Feb-12 01:00N 47°54' W 006°42'2019.7 992.9
2016-Feb-12 00:00N 48°12' W 006°30'2221.6 993.8
2016-Feb-11 23:00N 48°30' W 006°12'6315.8 995.2
2016-Feb-11 19:00N 49°12' W 005°00'1716.8 1001.7
2016-Feb-11 18:00N 49°18' W 004°36'2019.7 1002.8
2016-Feb-11 17:00N 49°30' W 004°12'3618.0 1003.2
2016-Feb-11 15:00N 49°48' W 003°24'4321.3 1003.9
2016-Feb-11 13:00N 50°06' W 002°24'1515.4 1004.5
2016-Feb-11 12:00N 50°06' W 002°00'1716.5 1004.9
2016-Feb-11 11:00N 50°12' W 001°36'1616.5 1004.7
2016-Feb-11 10:00N 50°18' W 001°12'1616.4 1004.5
2016-Feb-11 09:00N 50°24' W 000°48'1515.3 1005.1
2016-Feb-11 08:00N 50°24' W 000°24'2020.0 1005.2
2016-Feb-11 07:00N 50°30' E 000°06'2020.0 1005.0
2016-Feb-11 06:00N 50°36' E 000°36'1919.4 1005.0
2016-Feb-11 05:00N 50°48' E 001°00'1919.3 1005.1
2016-Feb-11 04:00N 51°00' E 001°24'1616.5 1004.7
2016-Feb-11 03:00N 51°12' E 001°42'1616.5 1004.3
2016-Feb-11 02:00N 51°24' E 002°00'1515.0 1003.4
2016-Feb-11 01:00N 51°24' E 002°24'1515.0 1002.9
2016-Feb-11 00:00N 51°24' E 002°48'3015.0 1002.9
2016-Feb-10 22:00N 51°24' E 003°36'7 7.5 1001.9
2016-Feb-10 21:00N 51°24' E 003°48'1111.2 1001.8
2016-Feb-10 20:00N 51°24' E 004°06'10 0.7 1000.7
2016-Feb-10 07:00N 51°18' E 004°18'0 0.0 991.2
2016-Feb-10 03:00N 51°18' E 004°18'7 7.1 989.4
2016-Feb-10 02:00N 51°24' E 004°12'1616.1 989.6
2016-Feb-10 01:00N 51°18' E 003°48'1312.7 989.6
2016-Feb-10 00:00N 51°24' E 003°30'1515.0 989.4
2016-Feb-09 23:00N 51°24' E 003°06'1515.0 989.0
2016-Feb-09 22:00N 51°24' E 002°42'7 7.5 988.2
2016-Feb-09 21:00N 51°24' E 002°30'1312.7 988.8
2016-Feb-09 20:00N 51°18' E 002°12'2311.7 988.5
2016-Feb-09 18:00N 51°36' E 001°48'1312.6 986.7
2016-Feb-09 17:00N 51°48' E 001°42'48 2.5 985.5
2016-Feb-08 22:00N 51°30' E 000°30'7 0.7 994.0
2016-Feb-08 12:00N 51°30' E 000°42'1111.2 982.5
2016-Feb-08 11:00N 51°30' E 001°00'1312.7 983.7
2016-Feb-08 10:00N 51°36' E 001°18'10 9.6 984.0
2016-Feb-08 09:00N 51°42' E 001°30'1414.1 983.4
2016-Feb-08 08:00N 51°54' E 001°42'7 7.4 982.9
2016-Feb-08 07:00N 51°54' E 001°54'1111.1 982.5
2016-Feb-08 06:00N 51°54' E 002°12'7 7.0 983.4
2016-Feb-08 05:00N 52°00' E 002°18'2814.2 983.0
2016-Feb-08 03:00N 52°18' E 002°54'1312.5 983.2
2016-Feb-08 02:00N 52°24' E 003°12'1414.0 983.4
2016-Feb-08 01:00N 52°36' E 003°24'1616.2 982.0
2016-Feb-08 00:00N 52°48' E 003°42'9 9.4 984.5
2016-Feb-07 23:00N 52°54' E 003°54'1616.2 986.3
2016-Feb-07 22:00N 53°06' E 004°12'1616.1 989.3
2016-Feb-07 21:00N 53°18' E 004°30'1414.0 990.7
2016-Feb-07 20:00N 53°30' E 004°42'1212.3 991.2
2016-Feb-07 19:00N 53°36' E 005°00'1515.4 991.9
2016-Feb-07 18:00N 53°42' E 005°24'1414.2 992.7
2016-Feb-07 17:00N 53°42' E 005°48'1515.4 992.9
2016-Feb-07 16:00N 53°48' E 006°12'1212.2 993.2
2016-Feb-07 15:00N 53°54' E 006°30'1414.1 993.8
2016-Feb-07 14:00N 53°54' E 006°54'1515.3 993.9
2016-Feb-07 13:00N 54°00' E 007°18'1414.1 994.1
2016-Feb-07 12:00N 54°00' E 007°42'1414.1 994.2
2016-Feb-07 11:00N 54°00' E 008°06'1414.1 994.5
2016-Feb-07 10:00N 54°00' E 008°30'1918.5 994.9
2016-Feb-07 09:00N 53°48' E 008°54'19 9.4 995.5
2016-Feb-07 07:00N 53°42' E 009°24'1212.2 997.6
2016-Feb-07 06:00N 53°36' E 009°42'9 1.2 997.9
2016-Feb-06 22:00N 53°30' E 009°54'0 0.0 1004.1
2016-Feb-05 16:00N 53°30' E 009°54'0 0.0 1017.9
2016-Feb-05 13:00N 53°30' E 009°54'1212.3 1018.9
2016-Feb-05 12:00N 53°36' E 009°36'9 9.3 1018.9
2016-Feb-05 11:00N 53°42' E 009°24'1413.9 1019.3
2016-Feb-05 10:00N 53°54' E 009°12'1212.2 1020.2
2016-Feb-05 09:00N 53°48' E 008°54'1616.0 1020.3
2016-Feb-05 08:00N 54°00' E 008°36'1414.1 1020.2
2016-Feb-05 07:00N 54°00' E 008°12'1918.6 1020.4
2016-Feb-05 06:00N 53°54' E 007°42'2121.2 1020.4
2016-Feb-05 05:00N 53°54' E 007°06'4120.4 1021.1
2016-Feb-05 03:00N 53°42' E 006°00'1918.8 1021.9
2016-Feb-05 02:00N 53°36' E 005°30'1918.8 1022.7
2016-Feb-05 01:00N 53°30' E 005°00'2323.0 1023.0
2016-Feb-05 00:00N 53°12' E 004°36'3718.5 1023.9
2016-Feb-04 22:00N 52°42' E 004°00'1818.4 1024.7
2016-Feb-04 21:00N 52°24' E 003°54'1818.0 1024.7
2016-Feb-04 20:00N 52°06' E 003°54'   1024.7

Dump ship's entire track history